Time;durP1;ratioP1;P1;durP2;ratioP2;P2;SDS_P1;SDS_P2;PMS_P1;PMS_P2;Temp;Humidity;BMP_temperature;BMP_pressure;BME280_temperature;BME280_humidity;BME280_pressure;Samples;Min_cycle;Max_cycle;Signal;HPM_P1;HPM_P2
2022/06/15 00:02:34;;;;;;;4.80;2.13;;;;;;;13.73;50.61;100103.22;10513793;28;20265;-60
2022/06/15 00:07:36;;;;;;;3.33;1.80;;;;;;;13.51;51.20;100095.13;10513602;28;20052;-60
2022/06/15 00:12:38;;;;;;;4.97;1.83;;;;;;;13.51;51.15;100096.91;10514840;28;20087;-60
2022/06/15 00:17:40;;;;;;;4.60;2.00;;;;;;;13.26;51.66;100097.72;10514448;28;20176;-60
2022/06/15 00:22:42;;;;;;;4.22;1.88;;;;;;;13.30;51.83;100104.44;10513998;28;20132;-60
2022/06/15 00:27:44;;;;;;;5.70;2.03;;;;;;;13.02;52.26;100102.00;10514457;28;20558;-60
2022/06/15 00:32:45;;;;;;;4.57;2.00;;;;;;;12.89;52.57;100094.09;10512131;28;20504;-60
2022/06/15 00:37:47;;;;;;;3.28;1.90;;;;;;;13.09;51.90;100098.00;10512950;28;20094;-60
2022/06/15 00:42:49;;;;;;;4.20;1.80;;;;;;;12.92;52.15;100096.50;10513051;28;20055;-60
2022/06/15 00:47:51;;;;;;;5.35;2.05;;;;;;;13.02;51.96;100082.78;10512846;28;20130;-60
2022/06/15 00:53:05;;;;;;;4.97;2.10;;;;;;;12.87;52.58;100092.53;10512429;28;20157;-60
2022/06/15 00:58:09;;;;;;;3.72;1.80;;;;;;;12.78;52.71;100083.47;10511191;28;20075;-60
2022/06/15 01:03:12;;;;;;;5.72;2.13;;;;;;;12.83;52.57;100086.63;10512050;28;20578;-59
2022/06/15 01:08:28;;;;;;;5.68;1.85;;;;;;;12.81;53.19;100083.28;10512821;28;20141;-60
2022/06/15 01:13:38;;;;;;;3.97;1.90;;;;;;;12.81;52.81;100090.31;10512302;28;20083;-60
2022/06/15 01:18:45;;;;;;;;;;;;;;;12.10;54.34;100092.31;10513322;28;20142;-60
2022/06/15 01:24:03;;;;;;;8.95;2.10;;;;;;;12.41;53.89;100081.59;10508886;28;20015;-60
2022/06/15 01:29:40;;;;;;;4.30;1.90;;;;;;;12.48;53.86;100087.25;10511824;28;20400;-60
2022/06/15 01:34:49;;;;;;;3.35;1.92;;;;;;;12.43;54.02;100078.88;10504061;28;20156;-59
2022/06/15 01:39:57;;;;;;;4.22;2.00;;;;;;;12.54;53.52;100079.00;10510610;28;20062;-60
2022/06/15 01:45:12;;;;;;;2.92;1.88;;;;;;;12.49;54.08;100076.69;10509601;28;20040;-60
2022/06/15 01:50:21;;;;;;;4.05;2.10;;;;;;;12.42;53.92;100071.91;10509053;28;20220;-60
2022/06/15 01:55:31;;;;;;;4.70;2.20;;;;;;;12.26;54.46;100074.66;10508833;28;20557;-60
2022/06/15 02:00:34;;;;;;;4.20;2.10;;;;;;;12.25;54.09;100067.75;10510815;28;20044;-59
2022/06/15 02:05:55;;;;;;;4.50;2.00;;;;;;;12.29;54.63;100065.81;10516256;28;20043;-60
2022/06/15 02:11:00;;;;;;;4.70;2.40;;;;;;;12.29;54.42;100064.03;10515631;28;20090;-60
2022/06/15 02:16:09;;;;;;;5.97;2.30;;;;;;;12.07;54.45;100054.03;10517091;28;20881;-60
2022/06/15 02:21:16;;;;;;;3.83;2.30;;;;;;;11.90;54.59;100066.53;10517400;28;20044;-60
2022/06/15 02:26:19;;;;;;;4.15;2.10;;;;;;;11.69;55.25;100065.25;10516204;28;20144;-60
2022/06/15 02:31:20;;;;;;;6.47;2.17;;;;;;;11.77;55.15;100052.50;10516105;28;20155;-60
2022/06/15 02:36:23;;;;;;;6.07;2.40;;;;;;;11.80;55.48;100052.31;10516531;28;20044;-59
2022/06/15 02:41:26;;;;;;;3.90;2.10;;;;;;;11.67;55.29;100056.63;10516769;28;20496;-60
2022/06/15 02:46:31;;;;;;;6.32;2.13;;;;;;;11.44;55.79;100057.22;10516161;28;20407;-59
2022/06/15 02:51:51;;;;;;;6.65;2.22;;;;;;;11.45;56.50;100066.75;10514947;28;20055;-60
2022/06/15 02:56:53;;;;;;;4.17;2.20;;;;;;;11.07;56.34;100056.81;10516253;28;20142;-59
2022/06/15 03:01:58;;;;;;;6.35;2.67;;;;;;;10.96;57.21;100064.44;10515087;28;20549;-59
2022/06/15 03:06:59;;;;;;;3.80;2.35;;;;;;;10.73;57.30;100059.72;10509492;28;20055;-60
2022/06/15 03:12:01;;;;;;;4.35;2.10;;;;;;;10.77;57.74;100062.97;10510062;28;20138;-59
2022/06/15 03:17:03;;;;;;;4.93;2.47;;;;;;;11.07;57.22;100054.19;10505969;28;20048;-59
2022/06/15 03:22:05;;;;;;;4.30;2.20;;;;;;;11.24;57.25;100054.03;10508014;28;20056;-60
2022/06/15 03:27:07;;;;;;;5.47;2.60;;;;;;;11.44;56.61;100057.22;10507502;28;20130;-60
2022/06/15 03:32:12;;;;;;;5.75;2.47;;;;;;;11.42;56.50;100061.72;10508742;28;20134;-61
2022/06/15 03:37:14;;;;;;;4.88;2.30;;;;;;;11.52;56.53;100044.50;10508614;28;20062;-60
2022/06/15 03:42:19;;;;;;;5.57;2.35;;;;;;;11.30;56.67;100050.19;10506047;28;20225;-60
2022/06/15 03:47:21;;;;;;;4.18;2.30;;;;;;;11.09;57.12;100054.13;10505474;28;20135;-61
2022/06/15 03:52:26;;;;;;;4.78;2.45;;;;;;;11.23;57.39;100047.09;10508238;28;20136;-61
2022/06/15 03:57:27;;;;;;;5.80;2.47;;;;;;;11.19;57.06;100048.22;10507378;28;20047;-61
2022/06/15 04:02:29;;;;;;;5.03;2.30;;;;;;;11.19;57.17;100050.84;10507103;28;20147;-60
2022/06/15 04:12:51;;;;;;;5.13;2.42;;;;;;;14.47;51.05;100042.56;10507280;28;20062;-61
2022/06/15 04:17:53;;;;;;;3.83;2.25;;;;;;;16.87;45.93;100030.47;10507017;28;20407;-61
2022/06/15 04:22:56;;;;;;;3.88;1.90;;;;;;;19.13;41.61;100026.03;10506383;28;20044;-61
2022/06/15 04:27:58;;;;;;;5.50;1.98;;;;;;;20.51;38.49;100026.69;10507654;28;20337;-61
2022/06/15 04:33:00;;;;;;;4.07;2.00;;;;;;;21.57;36.60;100015.84;10508067;28;20135;-61
2022/06/15 04:38:03;;;;;;;4.63;1.80;;;;;;;23.33;33.41;100006.41;10514028;28;20158;-62
2022/06/15 04:43:06;;;;;;;5.57;1.80;;;;;;;24.86;30.96;99995.66;10514364;28;20447;-60
2022/06/15 04:48:11;;;;;;;4.07;1.70;;;;;;;26.07;29.13;99991.59;10512326;28;20143;-59
2022/06/15 04:53:13;;;;;;;2.92;1.70;;;;;;;26.76;27.85;99997.25;10512278;28;20147;-59
2022/06/15 04:58:15;;;;;;;3.58;1.77;;;;;;;26.78;27.46;99998.72;10513562;28;20154;-59
2022/06/15 05:03:17;;;;;;;4.63;1.70;;;;;;;27.23;26.71;99998.25;10511645;28;20056;-59
2022/06/15 05:08:18;;;;;;;3.88;2.00;;;;;;;27.72;26.22;99999.94;10513617;28;20408;-60
2022/06/15 05:13:20;;;;;;;3.25;1.80;;;;;;;28.44;25.04;99986.78;10512283;28;20139;-60
2022/06/15 05:18:22;;;;;;;2.65;1.80;;;;;;;28.82;24.66;99994.03;10513302;28;21050;-60
2022/06/15 05:23:24;;;;;;;4.28;1.80;;;;;;;28.91;24.36;99995.50;10511780;28;20051;-60
2022/06/15 05:28:25;;;;;;;3.95;1.60;;;;;;;28.62;24.35;99997.75;10511630;28;20091;-59
2022/06/15 05:33:27;;;;;;;4.97;1.80;;;;;;;25.40;28.10;100012.38;10513924;28;20139;-60
2022/06/15 05:38:29;;;;;;;4.57;1.75;;;;;;;23.00;31.70;100016.31;10504826;28;20130;-60
2022/06/15 05:43:32;;;;;;;3.65;1.80;;;;;;;21.46;34.30;100013.44;10508961;28;20479;-60
2022/06/15 05:48:34;;;;;;;4.22;1.90;;;;;;;20.76;35.83;100022.47;10507328;28;20051;-60
2022/06/15 05:53:36;;;;;;;6.13;2.10;;;;;;;20.09;37.22;100020.31;10507938;28;20115;-60
2022/06/15 05:58:38;;;;;;;8.90;2.15;;;;;;;19.85;36.59;100030.63;10510003;28;20605;-60
2022/06/15 06:03:39;;;;;;;5.05;2.00;;;;;;;19.70;37.31;100024.97;10510810;28;20091;-60
2022/06/15 06:08:41;;;;;;;3.75;2.00;;;;;;;19.77;37.08;100025.19;10508412;28;20117;-60
2022/06/15 06:13:43;;;;;;;4.25;2.00;;;;;;;19.17;38.32;100024.75;10507211;28;20043;-62
2022/06/15 06:18:53;;;;;;;7.38;2.35;;;;;;;19.17;38.15;100023.91;10508957;28;20044;-61
2022/06/15 06:23:55;;;;;;;6.05;2.53;;;;;;;19.54;37.81;100014.16;10509709;28;20079;-61
2022/06/15 06:28:57;;;;;;;11.05;2.38;;;;;;;19.50;37.88;100020.75;10508945;28;20459;-61
2022/06/15 06:33:59;;;;;;;7.05;2.20;;;;;;;19.83;37.56;100016.69;10507816;28;20130;-62
2022/06/15 06:39:03;;;;;;;5.90;2.42;;;;;;;20.20;37.52;100026.22;10507840;28;20426;-61
2022/06/15 06:44:05;;;;;;;4.32;2.10;;;;;;;20.26;37.10;100024.78;10507521;28;20079;-62
2022/06/15 06:49:07;;;;;;;6.32;2.55;;;;;;;21.03;35.84;100025.81;10506887;28;20075;-61
2022/06/15 06:54:10;;;;;;;9.20;2.25;;;;;;;23.07;33.56;100019.09;10496766;28;20734;-61
2022/06/15 06:59:14;;;;;;;6.65;2.30;;;;;;;25.08;30.93;100007.34;10503457;28;20609;-61
2022/06/15 07:04:17;;;;;;;9.85;2.58;;;;;;;25.53;29.68;100019.75;10506803;28;20692;-61
2022/06/15 07:09:19;;;;;;;10.55;2.10;;;;;;;27.04;27.77;100016.84;10507566;28;20138;-61
2022/06/15 07:14:21;;;;;;;8.38;2.08;;;;;;;28.07;26.46;100001.56;10507320;28;20066;-61
2022/06/15 07:19:22;;;;;;;9.25;2.45;;;;;;;28.46;25.46;100001.66;10492937;28;20044;-60
2022/06/15 07:24:24;;;;;;;8.13;2.30;;;;;;;27.62;26.35;99999.50;10504281;28;20144;-66
2022/06/15 07:29:26;;;;;;;7.43;1.98;;;;;;;28.17;25.66;99999.31;10505336;28;20056;-67
2022/06/15 07:34:30;;;;;;;7.75;2.40;;;;;;;27.91;25.58;100010.78;10504839;28;20048;-65
2022/06/15 07:39:32;;;;;;;5.60;2.17;;;;;;;27.79;26.43;99992.78;10504731;28;20044;-65
2022/06/15 07:44:38;;;;;;;5.63;2.20;;;;;;;28.87;24.78;99996.09;10509016;28;20088;-65
2022/06/15 07:49:56;;;;;;;6.15;2.03;;;;;;;29.17;24.66;99993.81;10508504;28;20117;-67
2022/06/15 07:55:22;;;;;;;5.90;1.90;;;;;;;29.27;24.58;99991.50;10509167;28;20415;-65
2022/06/15 08:00:24;;;;;;;10.02;2.10;;;;;;;29.43;24.34;99993.78;10506870;28;20487;-66
2022/06/15 08:05:29;;;;;;;4.32;1.85;;;;;;;30.03;24.14;99996.03;10509675;28;20143;-65
2022/06/15 08:10:38;;;;;;;5.05;2.13;;;;;;;30.47;22.92;99981.69;10513446;28;20498;-65
2022/06/15 08:15:41;;;;;;;6.40;2.05;;;;;;;29.97;23.54;99988.00;10516562;28;20581;-65
2022/06/15 08:20:49;;;;;;;6.55;2.10;;;;;;;30.32;22.54;99981.97;10516676;28;20553;-66
2022/06/15 08:25:56;;;;;;;6.95;2.22;;;;;;;30.77;22.59;99971.03;10516947;28;20058;-66
2022/06/15 08:30:57;;;;;;;7.93;1.95;;;;;;;30.06;22.63;99971.34;10516716;28;20285;-66
2022/06/15 08:35:59;;;;;;;9.55;2.10;;;;;;;30.52;22.61;99968.34;10516025;28;20490;-67
2022/06/15 08:41:10;;;;;;;7.88;2.20;;;;;;;30.82;22.08;99963.13;10516077;28;20056;-66
2022/06/15 08:46:26;;;;;;;7.65;2.20;;;;;;;30.83;21.82;99962.06;10515561;28;20432;-66
2022/06/15 08:51:34;;;;;;;8.13;2.30;;;;;;;30.36;22.40;99966.16;10515039;28;20060;-66
2022/06/15 08:56:43;;;;;;;8.60;2.22;;;;;;;30.41;22.48;99967.19;10514002;28;20135;-66
2022/06/15 09:02:00;;;;;;;8.82;2.15;;;;;;;29.75;23.09;99976.66;10514678;28;20132;-66
2022/06/15 09:07:23;;;;;;;7.28;2.30;;;;;;;29.27;23.82;99978.03;10515182;28;20048;-66
2022/06/15 09:12:53;;;;;;;8.95;2.40;;;;;;;29.27;23.62;99969.97;10514739;28;20146;-66
2022/06/15 09:17:58;;;;;;;6.03;2.17;;;;;;;29.03;24.12;99966.88;10514642;28;20133;-66
2022/06/15 09:23:10;;;;;;;7.15;2.55;;;;;;;29.76;23.57;99970.22;10513214;28;20044;-66
2022/06/15 09:28:26;;;;;;;7.15;2.30;;;;;;;30.28;23.02;99964.56;10512857;28;20595;-66
2022/06/15 09:33:36;;;;;;;12.50;2.15;;;;;;;29.92;23.54;99963.50;10512951;28;20083;-67
2022/06/15 09:38:38;;;;;;;7.22;2.28;;;;;;;30.05;23.22;99950.00;10507448;28;20054;-67
2022/06/15 09:43:55;;;;;;;8.50;2.60;;;;;;;29.83;22.88;99954.84;10503325;28;20141;-67
2022/06/15 09:49:00;;;;;;;7.85;2.60;;;;;;;29.88;23.66;99955.88;10449086;28;20049;-66
2022/06/15 09:56:31;;;;;;;6.70;2.30;;;;;;;30.12;23.10;99945.38;10413109;28;20791;-68
2022/06/15 10:01:39;;;;;;;10.73;2.40;;;;;;;29.69;23.58;99937.06;10408743;28;20049;-69
2022/06/15 10:06:55;;;;;;;9.57;2.60;;;;;;;29.14;23.66;99949.25;10415072;28;20057;-68
2022/06/15 10:12:56;;;;;;;7.63;2.40;;;;;;;29.01;23.60;99943.94;10456573;28;20397;-68
2022/06/15 10:17:29;;;;;;;9.50;2.67;;;;;;;29.54;23.17;99936.53;10452582;28;20051;-68
2022/06/15 10:22:36;;;;;;;10.00;2.40;;;;;;;30.13;22.98;99934.34;10459025;28;20481;-68
2022/06/15 10:27:40;;;;;;;6.65;2.45;;;;;;;30.34;23.29;99919.66;10458653;28;20467;-67
2022/06/15 10:33:14;;;;;;;7.43;2.40;;;;;;;30.11;22.28;99933.75;10456392;28;20102;-67
2022/06/15 10:38:17;;;;;;;9.38;2.25;;;;;;;29.75;23.85;99931.66;10457148;28;20169;-67
2022/06/15 10:43:32;;;;;;;5.65;2.30;;;;;;;29.71;23.24;99932.28;10459075;28;20136;-68
2022/06/15 10:48:47;;;;;;;7.47;2.40;;;;;;;29.16;23.09;99922.09;10452706;28;20135;-67
2022/06/15 10:54:23;;;;;;;6.18;2.22;;;;;;;28.39;22.91;99922.81;10455903;28;20191;-67
2022/06/15 11:05:11;;;;;;;4.28;2.20;;;;;;;28.54;23.77;99914.53;10444542;28;20064;-68
2022/06/15 11:10:21;;;;;;;6.32;2.47;;;;;;;28.20;23.89;99910.13;10430249;28;20140;-67
2022/06/15 11:21:20;;;;;;;5.63;2.10;;;;;;;28.07;23.30;99894.84;10425916;28;20480;-68
2022/06/15 11:26:53;;;;;;;6.72;2.15;;;;;;;28.01;23.54;99898.31;10427321;28;20114;-67
2022/06/15 11:32:01;;;;;;;6.55;2.00;;;;;;;28.60;23.54;99890.31;10411342;28;20049;-67
2022/06/15 11:37:10;;;;;;;5.90;2.20;;;;;;;28.62;23.47;99896.31;10423904;28;20488;-67
2022/06/15 11:42:15;;;;;;;8.02;2.50;;;;;;;28.42;23.72;99892.00;10423534;28;20131;-67
2022/06/15 11:47:34;;;;;;;6.97;2.25;;;;;;;28.31;23.85;99882.66;10425593;28;20202;-67
2022/06/15 11:52:48;;;;;;;7.65;2.40;;;;;;;28.77;23.11;99880.75;10420096;28;20402;-67
2022/06/15 11:58:21;;;;;;;7.45;2.28;;;;;;;28.95;22.86;99875.56;10425832;28;20089;-67
2022/06/15 12:03:37;;;;;;;5.43;2.25;;;;;;;29.03;22.22;99872.63;10411884;28;20258;-67
2022/06/15 12:08:39;;;;;;;5.75;2.50;;;;;;;29.09;22.20;99868.28;10425235;28;20098;-67
2022/06/15 12:13:55;;;;;;;8.82;2.38;;;;;;;28.86;22.67;99860.69;10426352;28;20140;-67
2022/06/15 12:19:29;;;;;;;6.43;2.35;;;;;;;28.94;23.20;99857.78;10425735;28;20128;-67
2022/06/15 12:24:41;;;;;;;5.75;2.20;;;;;;;29.14;22.77;99849.59;10396199;28;20055;-67
2022/06/15 12:29:54;;;;;;;5.78;2.50;;;;;;;29.00;22.64;99850.69;10426980;28;20080;-67
2022/06/15 12:35:10;;;;;;;6.75;2.30;;;;;;;28.70;23.59;99844.13;10427206;28;20140;-67
2022/06/15 12:40:35;;;;;;;4.75;2.20;;;;;;;28.84;22.97;99849.31;10426930;28;20136;-67
2022/06/15 12:45:45;;;;;;;4.53;2.05;;;;;;;28.77;22.89;99844.94;10427181;28;20437;-67
2022/06/15 12:51:00;;;;;;;4.70;2.15;;;;;;;28.77;22.87;99844.94;10409014;28;20143;-67
2022/06/15 12:56:08;;;;;;;5.78;2.22;;;;;;;29.16;22.88;99835.91;10423266;28;20057;-67
2022/06/15 13:01:23;;;;;;;5.97;2.20;;;;;;;29.31;23.00;99831.09;10423231;28;20466;-67
2022/06/15 13:06:34;;;;;;;6.60;2.33;;;;;;;29.50;21.74;99836.41;10425732;28;20084;-67
2022/06/15 13:12:00;;;;;;;5.88;2.60;;;;;;;29.51;22.87;99824.59;10426074;28;20473;-67
2022/06/15 13:17:14;;;;;;;10.52;2.45;;;;;;;29.37;22.55;99828.38;10426512;28;20068;-67
2022/06/15 13:22:23;;;;;;;6.32;2.38;;;;;;;29.37;22.68;99835.63;10426113;28;20451;-67
2022/06/15 13:27:26;;;;;;;;;;;;;;;29.02;22.82;99835.16;10424376;28;20147;-67
2022/06/15 13:33:02;;;;;;;4.57;2.30;;;;;;;29.24;22.69;99820.34;10424261;28;19920;-67
2022/06/15 13:38:18;;;;;;;4.68;2.05;;;;;;;29.21;22.26;99831.56;10417508;28;20207;-67
2022/06/15 13:43:29;;;;;;;6.05;2.17;;;;;;;29.10;22.34;99829.53;10423716;28;20473;-67
2022/06/15 13:48:42;;;;;;;5.20;2.20;;;;;;;29.62;22.44;99823.09;10424087;28;20384;-67
2022/06/15 13:53:59;;;;;;;6.95;2.25;;;;;;;29.84;21.94;99821.69;10423104;28;20067;-67
2022/06/15 13:59:01;;;;;;;5.47;2.00;;;;;;;30.01;20.98;99822.00;10423040;28;20144;-67
2022/06/15 14:04:18;;;;;;;6.03;2.20;;;;;;;30.25;20.75;99824.72;10422171;28;20136;-67
2022/06/15 14:09:40;;;;;;;8.93;2.20;;;;;;;30.20;20.89;99821.84;10424253;28;20135;-67
2022/06/15 14:15:06;;;;;;;8.40;2.15;;;;;;;30.32;20.71;99820.06;10422926;28;20485;-67
2022/06/15 14:20:13;;;;;;;4.43;2.00;;;;;;;30.50;20.87;99821.97;10424914;28;20155;-66
2022/06/15 14:25:17;;;;;;;5.72;1.98;;;;;;;30.47;21.05;99811.66;10421538;28;20499;-67
2022/06/15 14:30:29;;;;;;;6.50;2.03;;;;;;;30.70;20.38;99801.03;10422143;28;20120;-67
2022/06/15 14:35:31;;;;;;;6.82;1.95;;;;;;;30.77;19.83;99800.94;10420222;28;20432;-67
2022/06/15 14:40:39;;;;;;;4.03;1.90;;;;;;;30.58;20.31;99797.41;10418864;28;20049;-67
2022/06/15 14:45:47;;;;;;;4.72;2.00;;;;;;;30.50;20.57;99795.81;10429120;28;20044;-67
2022/06/15 14:51:11;;;;;;;4.82;2.03;;;;;;;30.63;20.86;99800.25;10430403;28;20825;-67
2022/06/15 14:56:13;;;;;;;5.40;2.00;;;;;;;30.67;20.13;99794.19;10429420;28;20053;-67
2022/06/15 15:01:14;;;;;;;4.97;2.10;;;;;;;30.50;20.19;99782.34;10427420;28;20136;-67
2022/06/15 15:06:19;;;;;;;6.32;2.13;;;;;;;30.50;19.70;99771.53;10428522;28;20553;-67
2022/06/15 15:11:35;;;;;;;4.22;1.73;;;;;;;30.31;20.07;99777.13;10427663;28;20155;-67
2022/06/15 15:16:40;;;;;;;5.00;2.15;;;;;;;30.74;19.80;99777.09;10428945;28;20140;-67
2022/06/15 15:21:44;;;;;;;6.32;2.10;;;;;;;30.53;20.10;99768.41;10411743;28;20057;-67
2022/06/15 15:27:00;;;;;;;4.45;2.03;;;;;;;30.70;20.10;99767.81;10424269;28;20164;-67
2022/06/15 15:37:47;;;;;;;4.72;2.08;;;;;;;30.72;21.27;99761.13;10413016;28;20662;-67
2022/06/15 15:42:49;;;;;;;5.43;2.17;;;;;;;30.85;21.23;99760.94;10397858;28;20053;-67
2022/06/15 15:47:51;;;;;;;4.43;2.33;;;;;;;30.78;20.90;99762.09;10386217;28;20390;-67
2022/06/15 15:52:53;;;;;;;6.05;2.17;;;;;;;30.67;20.99;99758.28;10385834;28;20141;-67
2022/06/15 15:57:55;;;;;;;4.70;2.05;;;;;;;30.27;21.36;99757.84;10386882;28;20046;-66
2022/06/15 16:03:00;;;;;;;4.82;2.22;;;;;;;30.18;21.29;99761.88;10381161;28;20045;-67
2022/06/15 16:08:02;;;;;;;3.70;2.22;;;;;;;30.42;20.69;99752.06;10379811;28;20064;-67
2022/06/15 16:13:06;;;;;;;7.43;2.10;;;;;;;29.95;21.53;99760.88;10376289;28;20664;-67
2022/06/15 16:18:12;;;;;;;4.85;2.30;;;;;;;30.16;21.47;99750.50;10379895;28;20099;-67
2022/06/15 16:23:18;;;;;;;6.85;2.42;;;;;;;30.17;22.22;99752.13;10380438;28;20049;-65
2022/06/15 16:28:20;;;;;;;4.57;2.30;;;;;;;29.95;22.12;99753.56;10382873;28;20088;-65
2022/06/15 16:33:22;;;;;;;7.95;2.47;;;;;;;29.78;21.79;99747.91;10380323;28;20144;-65
2022/06/15 16:38:24;;;;;;;6.00;2.10;;;;;;;29.59;22.36;99745.34;10382116;28;20067;-66
2022/06/15 16:43:26;;;;;;;5.25;2.20;;;;;;;29.59;22.64;99739.97;10381816;28;20181;-66
2022/06/15 16:48:27;;;;;;;5.45;2.67;;;;;;;29.55;22.62;99744.97;10382508;28;20173;-65
2022/06/15 16:53:30;;;;;;;4.65;2.17;;;;;;;29.41;23.01;99746.09;10382134;28;20157;-65
2022/06/15 16:58:32;;;;;;;9.48;2.80;;;;;;;29.36;23.56;99750.47;10380880;28;20445;-66
2022/06/15 17:03:35;;;;;;;8.85;2.47;;;;;;;29.38;23.55;99749.19;10373405;28;20131;-67
2022/06/15 17:08:41;;;;;;;7.57;2.63;;;;;;;29.43;23.50;99748.56;10374517;28;20054;-67
2022/06/15 17:13:44;;;;;;;7.13;2.58;;;;;;;29.14;23.57;99757.19;10377435;28;20140;-66
2022/06/15 17:18:46;;;;;;;7.63;2.55;;;;;;;29.21;23.75;99755.31;10378803;28;20068;-67
2022/06/15 17:23:52;;;;;;;9.15;2.28;;;;;;;29.38;24.58;99751.88;10379090;28;20054;-67
2022/06/15 17:28:56;;;;;;;4.18;2.30;;;;;;;29.48;24.77;99752.25;10363089;28;21030;-66
2022/06/15 17:33:58;;;;;;;6.22;2.17;;;;;;;29.34;24.62;99758.75;10362336;28;20513;-67
2022/06/15 17:39:04;;;;;;;5.20;2.63;;;;;;;28.90;24.93;99756.94;10365125;28;20593;-67
2022/06/15 17:44:06;;;;;;;6.03;2.25;;;;;;;28.66;25.59;99765.69;10369711;28;20698;-67
2022/06/15 17:49:09;;;;;;;6.75;2.17;;;;;;;28.69;26.23;99773.31;10376312;28;20183;-67
2022/06/15 17:54:11;;;;;;;4.90;2.20;;;;;;;28.67;26.87;99774.56;10375240;28;20142;-67
2022/06/15 17:59:17;;;;;;;6.28;2.47;;;;;;;28.58;26.72;99768.63;10376015;28;20060;-67
2022/06/15 18:04:21;;;;;;;6.10;2.20;;;;;;;28.45;27.23;99763.25;10374117;28;20099;-67
2022/06/15 18:09:23;;;;;;;5.50;2.53;;;;;;;28.39;27.74;99764.09;10375422;28;20049;-67
2022/06/15 18:14:30;;;;;;;6.47;2.50;;;;;;;28.27;27.53;99760.38;10376483;28;20053;-67
2022/06/15 18:19:35;;;;;;;6.65;2.60;;;;;;;28.13;28.19;99762.25;10384706;28;20049;-67
2022/06/15 18:24:39;;;;;;;5.38;2.47;;;;;;;27.94;28.28;99749.66;10386339;28;20051;-67
2022/06/15 18:29:40;;;;;;;9.70;2.20;;;;;;;27.68;28.88;99756.84;10389075;28;20140;-66
2022/06/15 18:34:44;;;;;;;6.35;2.28;;;;;;;27.44;29.16;99756.41;10387039;28;20226;-67
2022/06/15 18:39:50;;;;;;;3.88;2.28;;;;;;;27.14;30.11;99760.47;10384457;28;20463;-67
2022/06/15 18:50:14;;;;;;;4.93;2.45;;;;;;;26.78;30.76;99756.38;10383356;28;20049;-67
2022/06/15 18:55:21;;;;;;;7.13;2.40;;;;;;;26.62;31.99;99769.13;10382339;28;20064;-66
2022/06/15 19:00:25;;;;;;;5.07;2.50;;;;;;;26.45;31.36;99774.94;10382916;28;20464;-62
2022/06/15 19:05:30;;;;;;;9.27;3.00;;;;;;;26.32;33.20;99769.53;10373772;28;20041;-61
2022/06/15 19:10:37;;;;;;;5.93;2.70;;;;;;;26.12;33.36;99781.97;10382869;28;20107;-61
2022/06/15 19:15:39;;;;;;;8.70;2.90;;;;;;;25.88;33.28;99785.84;10386875;28;20054;-61
2022/06/15 19:20:41;;;;;;;5.35;2.30;;;;;;;25.69;33.70;99798.03;10384951;28;20060;-61
2022/06/15 19:25:44;;;;;;;5.20;2.30;;;;;;;25.46;34.41;99800.09;10388139;28;20049;-61
2022/06/15 19:30:46;;;;;;;6.82;2.60;;;;;;;25.16;35.58;99803.00;10387464;28;20053;-61
2022/06/15 19:35:48;;;;;;;7.60;2.60;;;;;;;24.92;36.30;99807.66;10388106;28;20132;-61
2022/06/15 19:40:49;;;;;;;7.25;2.88;;;;;;;24.66;36.08;99811.78;10367770;28;20140;-61
2022/06/15 19:45:51;;;;;;;7.75;2.50;;;;;;;24.45;37.00;99809.03;10387028;28;20522;-61
2022/06/15 19:50:53;;;;;;;8.88;2.60;;;;;;;24.18;37.30;99816.63;10388739;28;20115;-61
2022/06/15 19:55:55;;;;;;;4.68;2.63;;;;;;;23.97;37.59;99824.47;10389832;28;20140;-61
2022/06/15 20:01:05;;;;;;;7.82;2.70;;;;;;;23.87;37.68;99823.91;10387885;28;20498;-61
2022/06/15 20:06:07;;;;;;;5.30;2.63;;;;;;;23.73;37.99;99826.50;10385955;28;20049;-61
2022/06/15 20:11:09;;;;;;;5.50;2.47;;;;;;;23.55;38.51;99825.97;10386628;28;20470;-61
2022/06/15 20:16:11;;;;;;;7.00;3.03;;;;;;;23.32;39.07;99826.75;10387886;28;20116;-61
2022/06/15 20:21:13;;;;;;;5.30;2.65;;;;;;;23.16;39.03;99820.66;10369814;28;20048;-61
2022/06/15 20:26:18;;;;;;;6.50;3.30;;;;;;;23.06;39.58;99836.06;10387858;28;20095;-60
2022/06/15 20:31:22;;;;;;;5.45;2.80;;;;;;;22.88;40.05;99838.13;10387405;28;20138;-61
2022/06/15 20:36:24;;;;;;;6.57;3.00;;;;;;;22.64;40.43;99841.66;10385831;28;20057;-61
2022/06/15 20:41:29;;;;;;;6.18;2.65;;;;;;;22.51;40.93;99852.88;10387160;28;20051;-61
2022/06/15 20:46:35;;;;;;;4.78;3.03;;;;;;;22.37;41.48;99853.53;10386913;28;20203;-60
2022/06/15 20:51:38;;;;;;;5.95;2.83;;;;;;;22.24;41.56;99863.88;10385759;28;20474;-61
2022/06/15 20:56:43;;;;;;;5.00;2.97;;;;;;;22.07;41.66;99869.41;10386206;28;20144;-61
2022/06/15 21:01:45;;;;;;;6.15;2.80;;;;;;;21.78;42.07;99862.66;10386623;28;20064;-60
2022/06/15 21:06:47;;;;;;;5.28;2.85;;;;;;;21.80;42.03;99858.00;10368680;28;20076;-60
2022/06/15 21:22:31;;;;;;;6.05;3.15;;;;;;;21.40;42.92;99860.59;10383315;28;20045;-61
2022/06/15 21:27:32;;;;;;;6.20;3.10;;;;;;;21.20;43.49;99863.66;10384564;28;20517;-60
2022/06/15 21:32:35;;;;;;;5.43;2.72;;;;;;;21.12;43.47;99880.44;10384808;28;20152;-61
2022/06/15 21:37:37;;;;;;;5.95;2.90;;;;;;;21.06;43.88;99876.59;10383871;28;20060;-60
2022/06/15 21:42:40;;;;;;;5.65;3.20;;;;;;;20.94;44.28;99877.88;10385502;28;20050;-60
2022/06/15 21:47:46;;;;;;;6.70;2.88;;;;;;;20.79;44.33;99868.81;10385225;28;20099;-61
2022/06/15 21:52:50;;;;;;;9.55;3.20;;;;;;;20.67;44.51;99871.88;10385012;28;20148;-60
2022/06/15 21:57:53;;;;;;;11.45;3.75;;;;;;;20.48;44.90;99872.88;10367164;28;20136;-61
2022/06/15 22:02:54;;;;;;;7.22;3.17;;;;;;;20.29;45.43;99873.09;10382344;28;20045;-61
2022/06/15 22:07:56;;;;;;;8.50;3.03;;;;;;;20.22;45.57;99874.69;10383362;28;21078;-61
2022/06/15 22:12:58;;;;;;;5.93;3.20;;;;;;;20.23;45.56;99877.19;10366849;28;20128;-61
2022/06/15 22:17:59;;;;;;;4.97;3.00;;;;;;;20.13;45.90;99883.59;10370333;28;20056;-60
2022/06/15 22:23:01;;;;;;;8.00;3.17;;;;;;;19.71;46.47;99891.28;10383134;28;20156;-60
2022/06/15 22:28:03;;;;;;;5.30;2.90;;;;;;;19.63;46.99;99891.22;10383418;28;20091;-60
2022/06/15 22:33:05;;;;;;;5.15;2.67;;;;;;;19.68;46.57;99898.72;10384346;28;20137;-60
2022/06/15 22:38:07;;;;;;;5.95;3.10;;;;;;;19.56;46.87;99895.47;10381304;28;20059;-60
2022/06/15 22:43:09;;;;;;;4.47;2.90;;;;;;;19.53;47.11;99910.81;10383674;28;20045;-61
2022/06/15 22:50:39;;;;;;;7.70;3.17;;;;;;;19.49;47.06;99905.00;10383878;28;20494;-61
2022/06/15 22:53:33;;;;;;;5.93;3.05;;;;;;;19.51;47.04;99902.19;10382139;28;20140;-60
2022/06/15 22:58:34;;;;;;;6.63;3.30;;;;;;;19.51;46.75;99910.13;10383137;28;20132;-60
2022/06/15 23:03:36;;;;;;;5.03;3.20;;;;;;;19.44;47.28;99909.91;10389652;28;20049;-60
2022/06/15 23:08:38;;;;;;;4.72;3.00;;;;;;;19.36;47.21;99909.81;10390867;28;20049;-60
2022/06/15 23:13:41;;;;;;;8.10;3.40;;;;;;;19.34;47.39;99909.13;10390568;28;20128;-60
2022/06/15 23:18:43;;;;;;;5.03;3.38;;;;;;;19.25;47.80;99913.50;10388535;28;20146;-60
2022/06/15 23:23:44;;;;;;;6.80;3.20;;;;;;;19.23;48.06;99912.81;10390280;28;20049;-60
2022/06/15 23:28:48;;;;;;;7.55;3.50;;;;;;;19.24;48.18;99927.72;10389821;28;20136;-61
2022/06/15 23:33:52;;;;;;;6.70;3.38;;;;;;;19.16;48.18;99918.84;10388574;28;20383;-60
2022/06/15 23:38:54;;;;;;;6.13;3.58;;;;;;;19.02;48.42;99912.22;10388332;28;20053;-60
2022/06/15 23:43:55;;;;;;;5.20;3.30;;;;;;;19.01;48.52;99915.78;10389410;28;20136;-60
2022/06/15 23:48:57;;;;;;;5.57;3.13;;;;;;;18.92;48.67;99914.03;10389406;28;20057;-60
2022/06/15 23:53:59;;;;;;;6.22;3.53;;;;;;;18.81;48.85;99894.84;10388114;28;20184;-60
2022/06/15 23:59:01;;;;;;;5.32;3.40;;;;;;;18.65;49.44;99876.88;10388893;28;20049;-60
